Time;durP1;ratioP1;P1;durP2;ratioP2;P2;SDS_P1;SDS_P2;PMS_P1;PMS_P2;Temp;Humidity;BMP_temperature;BMP_pressure;BME280_temperature;BME280_humidity;BME280_pressure;Samples;Min_cycle;Max_cycle;Signal;HPM_P1;HPM_P2
2024/04/03 00:00:36;;;;;;;1.83;1.43;;;;;;;;;;5096548;28;20382;-80
2024/04/03 00:03:02;;;;;;;1.67;1.23;;;;;;;;;;5096779;28;20380;-80
2024/04/03 00:05:28;;;;;;;1.70;1.27;;;;;;;;;;5096605;28;20500;-80
2024/04/03 00:07:54;;;;;;;2.50;1.17;;;;;;;;;;5096442;28;20374;-80
2024/04/03 00:10:20;;;;;;;1.70;1.20;;;;;;;;;;5096647;28;20459;-80
2024/04/03 00:12:46;;;;;;;3.35;1.38;;;;;;;;;;5096293;28;20852;-80
2024/04/03 00:15:12;;;;;;;2.28;1.60;;;;;;;;;;5096223;28;20386;-80
2024/04/03 00:17:38;;;;;;;1.75;1.30;;;;;;;;;;5096060;28;20378;-80
2024/04/03 00:20:05;;;;;;;1.70;1.02;;;;;;;;;;5096207;28;20919;-80
2024/04/03 00:22:31;;;;;;;0.90;0.90;;;;;;;;;;5095850;28;20446;-80
2024/04/03 00:24:56;;;;;;;1.48;1.00;;;;;;;;;;5096079;28;20883;-80
2024/04/03 00:27:22;;;;;;;1.67;1.20;;;;;;;;;;5096205;28;20381;-80
2024/04/03 00:29:49;;;;;;;2.10;1.10;;;;;;;;;;5096630;28;20484;-80
2024/04/03 00:32:15;;;;;;;2.05;1.30;;;;;;;;;;5094854;28;20421;-80
2024/04/03 00:34:41;;;;;;;1.67;1.48;;;;;;;;;;5096259;28;20689;-80
2024/04/03 00:37:08;;;;;;;2.25;1.90;;;;;;;;;;5096156;28;20375;-80
2024/04/03 00:39:34;;;;;;;2.92;1.77;;;;;;;;;;5095884;28;20378;-80
2024/04/03 00:42:00;;;;;;;1.90;1.20;;;;;;;;;;5096168;28;20394;-80
2024/04/03 00:44:26;;;;;;;2.85;1.90;;;;;;;;;;5096176;28;20393;-80
2024/04/03 00:46:52;;;;;;;3.07;1.17;;;;;;;;;;5095718;28;20401;-80
2024/04/03 00:49:19;;;;;;;3.33;1.70;;;;;;;;;;5094141;28;20843;-80
2024/04/03 00:51:47;;;;;;;2.47;1.30;;;;;;;;;;5093717;28;20382;-80
2024/04/03 00:54:13;;;;;;;2.05;0.90;;;;;;;;;;5095484;28;20864;-80
2024/04/03 00:56:40;;;;;;;1.60;1.10;;;;;;;;;;5094968;28;20382;-80
2024/04/03 00:59:06;;;;;;;1.63;0.90;;;;;;;;;;5095224;28;20414;-80
2024/04/03 01:01:32;;;;;;;2.10;0.90;;;;;;;;;;5095299;28;20393;-80
2024/04/03 01:03:58;;;;;;;1.15;1.00;;;;;;;;;;5095036;28;20382;-80
2024/04/03 01:06:24;;;;;;;1.58;1.00;;;;;;;;;;5095339;28;21163;-80
2024/04/03 01:08:50;;;;;;;1.90;1.20;;;;;;;;;;5095229;28;20499;-80
2024/04/03 01:11:17;;;;;;;1.10;0.90;;;;;;;;;;5095392;28;20374;-80
2024/04/03 01:13:43;;;;;;;2.53;1.10;;;;;;;;;;5095406;28;20443;-80
2024/04/03 01:16:09;;;;;;;1.20;0.77;;;;;;;;;;5095856;28;20378;-80
2024/04/03 01:18:35;;;;;;;1.52;1.02;;;;;;;;;;5095071;28;20429;-80
2024/04/03 01:21:01;;;;;;;1.63;0.90;;;;;;;;;;5094935;28;20858;-80
2024/04/03 01:23:27;;;;;;;2.55;1.30;;;;;;;;;;5095181;28;20778;-80
2024/04/03 01:25:53;;;;;;;2.35;1.00;;;;;;;;;;5095258;28;20402;-80
2024/04/03 01:28:21;;;;;;;2.03;1.00;;;;;;;;;;5095210;28;20385;-80
2024/04/03 01:30:47;;;;;;;2.88;1.00;;;;;;;;;;5094454;28;20370;-80
2024/04/03 01:33:13;;;;;;;1.90;1.10;;;;;;;;;;5094063;28;20398;-80
2024/04/03 01:35:39;;;;;;;1.53;1.10;;;;;;;;;;5094015;28;20432;-80
2024/04/03 01:38:05;;;;;;;1.30;0.80;;;;;;;;;;5095297;28;20476;-80
2024/04/03 01:40:31;;;;;;;0.85;0.80;;;;;;;;;;5094299;28;20792;-80
2024/04/03 01:42:57;;;;;;;2.47;0.90;;;;;;;;;;5095026;28;20443;-80
2024/04/03 01:45:23;;;;;;;2.15;1.10;;;;;;;;;;5095109;28;20463;-80
2024/04/03 01:47:49;;;;;;;1.70;1.07;;;;;;;;;;5095242;28;20374;-80
2024/04/03 01:50:19;;;;;;;1.98;1.00;;;;;;;;;;5095453;28;20400;-80
2024/04/03 01:52:46;;;;;;;2.07;1.10;;;;;;;;;;5094930;28;20381;-80
2024/04/03 01:55:11;;;;;;;1.13;0.90;;;;;;;;;;5095018;28;20435;-80
2024/04/03 01:57:37;;;;;;;1.57;1.10;;;;;;;;;;5095389;28;20470;-80
2024/04/03 02:00:04;;;;;;;1.00;0.90;;;;;;;;;;5095570;28;20386;-80
2024/04/03 02:02:30;;;;;;;1.95;1.10;;;;;;;;;;5095040;28;20435;-80
2024/04/03 02:04:56;;;;;;;2.92;1.38;;;;;;;;;;5095282;28;20406;-80
2024/04/03 02:07:22;;;;;;;2.00;1.30;;;;;;;;;;5095115;28;20378;-80
2024/04/03 02:09:48;;;;;;;1.52;1.10;;;;;;;;;;5095319;28;20382;-80
2024/04/03 02:12:14;;;;;;;1.35;0.90;;;;;;;;;;5095463;28;21009;-80
2024/04/03 02:14:40;;;;;;;1.37;1.17;;;;;;;;;;5095413;28;20378;-80
2024/04/03 02:17:06;;;;;;;1.98;0.98;;;;;;;;;;5094063;28;20851;-80
2024/04/03 02:19:32;;;;;;;1.52;1.10;;;;;;;;;;5094153;28;20428;-80
2024/04/03 02:21:58;;;;;;;2.08;1.00;;;;;;;;;;5094837;28;20413;-80
2024/04/03 02:24:24;;;;;;;1.00;0.90;;;;;;;;;;5095288;28;20362;-80
2024/04/03 02:26:50;;;;;;;1.92;0.98;;;;;;;;;;5094881;28;20811;-80
2024/04/03 02:29:16;;;;;;;2.45;0.82;;;;;;;;;;5094318;28;20420;-80
2024/04/03 02:31:42;;;;;;;1.35;1.00;;;;;;;;;;5094607;28;20378;-80
2024/04/03 02:34:08;;;;;;;1.23;0.82;;;;;;;;;;5093851;28;20941;-80
2024/04/03 02:36:35;;;;;;;1.63;1.00;;;;;;;;;;5093090;28;20378;-80
2024/04/03 02:39:01;;;;;;;1.98;1.10;;;;;;;;;;5093704;28;20406;-80
2024/04/03 02:41:27;;;;;;;2.00;1.20;;;;;;;;;;5094092;28;20412;-80
2024/04/03 02:43:53;;;;;;;2.65;1.30;;;;;;;;;;5093846;28;20775;-80
2024/04/03 02:46:19;;;;;;;1.60;1.10;;;;;;;;;;5092622;28;20405;-80
2024/04/03 02:48:45;;;;;;;0.98;0.80;;;;;;;;;;5092268;28;20413;-80
2024/04/03 02:51:11;;;;;;;1.27;0.80;;;;;;;;;;5093375;28;20382;-80
2024/04/03 02:53:37;;;;;;;2.28;0.70;;;;;;;;;;5097020;28;20879;-80
2024/04/03 02:56:07;;;;;;;2.67;0.90;;;;;;;;;;5096697;28;20382;-80
2024/04/03 02:58:33;;;;;;;2.13;1.02;;;;;;;;;;5094009;28;20394;-80
2024/04/03 03:01:00;;;;;;;1.17;0.95;;;;;;;;;;5092903;28;20459;-80
2024/04/03 03:03:29;;;;;;;2.13;1.20;;;;;;;;;;5094480;28;20417;-80
2024/04/03 03:05:55;;;;;;;1.42;1.00;;;;;;;;;;5096461;28;20896;-80
2024/04/03 03:08:21;;;;;;;1.80;0.90;;;;;;;;;;5093508;28;20856;-80
2024/04/03 03:10:47;;;;;;;2.45;1.13;;;;;;;;;;5093286;28;20398;-80
2024/04/03 03:13:13;;;;;;;1.17;1.00;;;;;;;;;;5092892;28;20374;-80
2024/04/03 03:15:39;;;;;;;1.20;0.90;;;;;;;;;;5093244;28;20432;-80
2024/04/03 03:18:05;;;;;;;1.40;0.90;;;;;;;;;;5092847;28;20385;-80
2024/04/03 03:20:31;;;;;;;1.15;0.85;;;;;;;;;;5093462;28;20782;-80
2024/04/03 03:22:57;;;;;;;1.60;1.10;;;;;;;;;;5093461;28;20416;-80
2024/04/03 03:25:23;;;;;;;1.67;0.93;;;;;;;;;;5093152;28;20402;-80
2024/04/03 03:27:49;;;;;;;1.27;0.95;;;;;;;;;;5092415;28;20455;-80
2024/04/03 03:30:15;;;;;;;1.73;0.90;;;;;;;;;;5094007;28;20388;-80
2024/04/03 03:32:41;;;;;;;1.50;1.00;;;;;;;;;;5092938;28;20402;-80
2024/04/03 03:35:07;;;;;;;1.33;1.00;;;;;;;;;;5096913;28;20424;-80
2024/04/03 03:37:33;;;;;;;1.25;1.08;;;;;;;;;;5094687;28;20394;-80
2024/04/03 03:40:01;;;;;;;1.95;0.98;;;;;;;;;;5101500;28;20509;-80
2024/04/03 03:42:27;;;;;;;1.33;0.80;;;;;;;;;;5100220;28;20836;-80
2024/04/03 03:44:53;;;;;;;1.55;0.82;;;;;;;;;;5076632;28;20389;-80
2024/04/03 03:47:19;;;;;;;1.80;0.80;;;;;;;;;;5095448;28;20725;-80
2024/04/03 03:52:41;;;;;;;1.40;0.80;;;;;;;;;;5098269;28;20385;-80
2024/04/03 03:55:07;;;;;;;1.90;1.00;;;;;;;;;;5094947;28;20859;-80
2024/04/03 03:57:33;;;;;;;1.20;0.80;;;;;;;;;;5093847;28;20874;-80
2024/04/03 04:00:00;;;;;;;0.80;0.80;;;;;;;;;;5094820;28;20381;-80
2024/04/03 04:02:26;;;;;;;1.30;1.00;;;;;;;;;;5075547;28;20891;-80
2024/04/03 04:04:52;;;;;;;1.00;0.90;;;;;;;;;;5093821;28;20851;-80
2024/04/03 04:07:22;;;;;;;1.27;1.08;;;;;;;;;;5076068;28;20385;-80
2024/04/03 04:09:51;;;;;;;1.45;1.05;;;;;;;;;;5093960;28;20452;-80
2024/04/03 04:12:21;;;;;;;2.73;1.10;;;;;;;;;;5094517;28;20914;-79
2024/04/03 04:14:51;;;;;;;1.15;1.00;;;;;;;;;;5080500;28;20883;-80
2024/04/03 04:17:17;;;;;;;2.20;1.00;;;;;;;;;;5094845;28;20370;-80
2024/04/03 04:19:43;;;;;;;2.42;1.00;;;;;;;;;;5095246;28;20433;-80
2024/04/03 04:22:09;;;;;;;1.20;1.00;;;;;;;;;;5094033;28;20382;-80
2024/04/03 04:24:36;;;;;;;2.00;1.35;;;;;;;;;;5095708;28;20393;-80
2024/04/03 04:27:07;;;;;;;1.20;1.10;;;;;;;;;;5097212;28;20809;-80
2024/04/03 04:29:35;;;;;;;1.50;1.30;;;;;;;;;;5097032;28;20421;-80
2024/04/03 04:32:01;;;;;;;2.78;1.30;;;;;;;;;;5097127;28;20401;-80
2024/04/03 04:34:28;;;;;;;1.73;1.45;;;;;;;;;;5096892;28;20449;-79
2024/04/03 04:36:54;;;;;;;6.30;1.90;;;;;;;;;;5097172;28;20863;-79
2024/04/03 04:39:20;;;;;;;1.42;1.15;;;;;;;;;;5096696;28;20382;-79
2024/04/03 04:41:49;;;;;;;4.40;1.10;;;;;;;;;;5096064;28;20380;-80
2024/04/03 04:44:16;;;;;;;1.67;1.10;;;;;;;;;;5094914;28;20377;-80
2024/04/03 04:46:42;;;;;;;2.65;1.10;;;;;;;;;;5096525;28;20404;-80
2024/04/03 04:49:08;;;;;;;1.70;1.20;;;;;;;;;;5097115;28;20370;-80
2024/04/03 04:51:34;;;;;;;1.60;1.20;;;;;;;;;;5097022;28;20451;-80
2024/04/03 04:54:00;;;;;;;1.60;1.27;;;;;;;;;;5096991;28;20399;-80
2024/04/03 04:56:26;;;;;;;2.13;1.40;;;;;;;;;;5096984;28;20546;-79
2024/04/03 04:58:52;;;;;;;2.28;1.10;;;;;;;;;;5096350;28;20461;-80
2024/04/03 05:01:19;;;;;;;1.85;0.90;;;;;;;;;;5096991;28;20764;-80
2024/04/03 05:03:45;;;;;;;1.98;1.02;;;;;;;;;;5097524;28;20871;-80
2024/04/03 05:06:18;;;;;;;4.05;1.10;;;;;;;;;;5096817;28;20884;-80
2024/04/03 05:08:45;;;;;;;2.25;1.13;;;;;;;;;;5096548;28;20370;-82
2024/04/03 05:11:11;;;;;;;2.22;1.08;;;;;;;;;;5096804;28;20366;-80
2024/04/03 05:13:37;;;;;;;1.95;1.17;;;;;;;;;;5097054;28;20401;-80
2024/04/03 05:16:06;;;;;;;2.10;1.10;;;;;;;;;;5096777;28;20389;-80
2024/04/03 05:18:32;;;;;;;2.28;1.02;;;;;;;;;;5095019;28;20724;-80
2024/04/03 05:20:59;;;;;;;1.20;0.87;;;;;;;;;;5095167;28;20479;-80
2024/04/03 05:23:25;;;;;;;2.15;1.20;;;;;;;;;;5096255;28;20374;-80
2024/04/03 05:25:57;;;;;;;2.33;1.40;;;;;;;;;;5095884;28;20985;-80
2024/04/03 05:28:25;;;;;;;1.75;1.40;;;;;;;;;;5095665;28;20378;-80
2024/04/03 05:30:51;;;;;;;2.35;1.40;;;;;;;;;;5095093;28;20409;-80
2024/04/03 05:33:17;;;;;;;1.45;1.30;;;;;;;;;;5094983;28;20402;-79
2024/04/03 05:35:43;;;;;;;2.38;1.40;;;;;;;;;;5094312;28;20378;-80
2024/04/03 05:38:09;;;;;;;3.28;1.50;;;;;;;;;;5096605;28;20729;-80
2024/04/03 05:40:35;;;;;;;1.83;1.35;;;;;;;;;;5098009;28;20390;-80
2024/04/03 05:43:01;;;;;;;4.03;1.60;;;;;;;;;;5096612;28;20374;-80
2024/04/03 05:45:27;;;;;;;2.00;1.20;;;;;;;;;;5095942;28;20806;-80
2024/04/03 05:47:53;;;;;;;1.50;1.20;;;;;;;;;;5096551;28;20370;-80
2024/04/03 05:50:19;;;;;;;3.45;1.38;;;;;;;;;;5095913;28;20401;-80
2024/04/03 05:52:45;;;;;;;3.38;1.60;;;;;;;;;;5096397;28;20859;-80
2024/04/03 05:55:13;;;;;;;2.50;1.50;;;;;;;;;;5096238;28;20410;-80
2024/04/03 05:57:39;;;;;;;2.40;1.40;;;;;;;;;;5096122;28;20394;-80
2024/04/03 06:00:07;;;;;;;2.55;1.40;;;;;;;;;;5095568;28;20883;-80
2024/04/03 06:02:33;;;;;;;1.52;1.20;;;;;;;;;;5095735;28;20420;-80
2024/04/03 06:04:59;;;;;;;3.33;1.27;;;;;;;;;;5095271;28;20412;-80
2024/04/03 06:07:25;;;;;;;2.80;1.40;;;;;;;;;;5095711;28;20864;-80
2024/04/03 06:09:51;;;;;;;2.85;1.90;;;;;;;;;;5095996;28;20381;-80
2024/04/03 06:12:17;;;;;;;2.50;2.17;;;;;;;;;;5094958;28;20860;-80
2024/04/03 06:14:43;;;;;;;3.73;2.40;;;;;;;;;;5094994;28;20455;-80
2024/04/03 06:17:09;;;;;;;2.10;1.70;;;;;;;;;;5094671;28;20390;-80
2024/04/03 06:19:35;;;;;;;2.70;1.70;;;;;;;;;;5094819;28;20435;-80
2024/04/03 06:22:01;;;;;;;2.13;1.58;;;;;;;;;;5094904;28;20500;-80
2024/04/03 06:24:27;;;;;;;4.13;2.33;;;;;;;;;;5095250;28;20374;-80
2024/04/03 06:26:53;;;;;;;2.28;1.90;;;;;;;;;;5094565;28;20416;-80
2024/04/03 06:29:20;;;;;;;3.93;2.50;;;;;;;;;;5094882;28;20520;-80
2024/04/03 06:31:47;;;;;;;5.03;2.07;;;;;;;;;;5095171;28;20488;-80
2024/04/03 06:34:14;;;;;;;2.80;2.05;;;;;;;;;;5094949;28;20732;-80
2024/04/03 06:36:40;;;;;;;2.55;1.95;;;;;;;;;;5094912;28;20409;-80
2024/04/03 06:39:06;;;;;;;3.30;1.77;;;;;;;;;;5076305;28;20456;-80
2024/04/03 06:41:32;;;;;;;3.37;2.10;;;;;;;;;;5094510;28;20413;-80
2024/04/03 06:43:58;;;;;;;2.92;1.90;;;;;;;;;;5096095;28;20416;-80
2024/04/03 06:46:24;;;;;;;3.53;2.20;;;;;;;;;;5093860;28;20409;-80
2024/04/03 06:48:50;;;;;;;3.88;2.13;;;;;;;;;;5093868;28;20488;-80
2024/04/03 06:51:16;;;;;;;3.42;1.92;;;;;;;;;;5093590;28;20381;-80
2024/04/03 06:53:42;;;;;;;6.28;2.20;;;;;;;;;;5093240;28;20465;-80
2024/04/03 06:56:09;;;;;;;2.97;1.60;;;;;;;;;;5092816;28;20945;-80
2024/04/03 06:58:41;;;;;;;1.90;1.80;;;;;;;;;;5092812;28;20386;-80
2024/04/03 07:01:08;;;;;;;6.27;3.67;;;;;;;;;;5093634;28;20836;-80
2024/04/03 07:03:34;;;;;;;3.60;2.40;;;;;;;;;;5093401;28;20439;-80
2024/04/03 07:06:00;;;;;;;2.95;2.05;;;;;;;;;;5093629;28;20406;-80
2024/04/03 07:08:27;;;;;;;3.38;2.20;;;;;;;;;;5092928;28;20469;-80
2024/04/03 07:10:53;;;;;;;3.33;1.87;;;;;;;;;;5093149;28;20401;-80
2024/04/03 07:13:20;;;;;;;1.98;1.70;;;;;;;;;;5092580;28;20382;-79
2024/04/03 07:15:47;;;;;;;1.92;1.63;;;;;;;;;;5093207;28;20435;-79
2024/04/03 07:18:13;;;;;;;2.40;1.50;;;;;;;;;;5092709;28;20851;-79
2024/04/03 07:20:40;;;;;;;2.25;1.60;;;;;;;;;;5093029;28;20378;-79
2024/04/03 07:23:06;;;;;;;2.40;1.55;;;;;;;;;;5092720;28;20386;-79
2024/04/03 07:25:32;;;;;;;2.45;1.70;;;;;;;;;;5093319;28;20408;-79
2024/04/03 07:28:09;;;;;;;2.30;1.67;;;;;;;;;;5093095;28;20434;-79
2024/04/03 07:30:34;;;;;;;3.90;1.80;;;;;;;;;;5092893;28;20366;-79
2024/04/03 07:33:01;;;;;;;2.60;1.50;;;;;;;;;;5093286;28;20955;-79
2024/04/03 07:35:26;;;;;;;2.70;1.77;;;;;;;;;;5092968;28;20370;-79
2024/04/03 07:37:54;;;;;;;2.05;1.85;;;;;;;;;;5092946;28;20381;-79
2024/04/03 07:40:20;;;;;;;2.08;1.63;;;;;;;;;;5092639;28;20406;-79
2024/04/03 07:42:47;;;;;;;2.33;1.48;;;;;;;;;;5092968;28;20728;-79
2024/04/03 07:45:14;;;;;;;3.17;1.60;;;;;;;;;;5092584;28;20402;-79
2024/04/03 07:47:41;;;;;;;1.85;1.42;;;;;;;;;;5092797;28;20428;-79
2024/04/03 07:50:08;;;;;;;1.92;1.27;;;;;;;;;;5093052;28;20472;-79
2024/04/03 07:52:39;;;;;;;2.80;1.70;;;;;;;;;;5092913;28;20374;-79
2024/04/03 07:55:07;;;;;;;1.83;1.60;;;;;;;;;;5092903;28;20381;-79
2024/04/03 07:57:34;;;;;;;2.40;1.65;;;;;;;;;;5093285;28;20378;-79
2024/04/03 08:00:01;;;;;;;3.00;1.75;;;;;;;;;;5096458;28;20393;-79
2024/04/03 08:02:27;;;;;;;2.38;2.10;;;;;;;;;;5096977;28;20430;-79
2024/04/03 08:04:54;;;;;;;2.58;1.80;;;;;;;;;;5096684;28;20468;-79
2024/04/03 08:07:20;;;;;;;2.45;1.70;;;;;;;;;;5096586;28;20402;-79
2024/04/03 08:09:46;;;;;;;3.28;1.92;;;;;;;;;;5095987;28;20431;-79
2024/04/03 08:12:12;;;;;;;3.38;2.42;;;;;;;;;;5096186;28;20732;-79
2024/04/03 08:14:38;;;;;;;1.85;1.60;;;;;;;;;;5096196;28;20373;-79
2024/04/03 08:17:04;;;;;;;2.65;1.77;;;;;;;;;;5096251;28;20382;-79
2024/04/03 08:19:30;;;;;;;2.22;1.77;;;;;;;;;;5096911;28;20405;-79
2024/04/03 08:21:56;;;;;;;2.80;1.80;;;;;;;;;;5097573;28;20720;-79
2024/04/03 08:24:23;;;;;;;3.33;2.08;;;;;;;;;;5097177;28;20461;-79
2024/04/03 08:26:49;;;;;;;3.53;1.50;;;;;;;;;;5097434;28;20402;-79
2024/04/03 08:29:17;;;;;;;1.88;1.27;;;;;;;;;;5097044;28;20393;-80
2024/04/03 08:31:43;;;;;;;2.72;1.40;;;;;;;;;;5095672;28;20377;-79
2024/04/03 08:34:09;;;;;;;1.42;1.00;;;;;;;;;;5095559;28;20374;-80
2024/04/03 08:36:35;;;;;;;2.28;1.30;;;;;;;;;;5096135;28;20864;-80
2024/04/03 08:39:01;;;;;;;2.33;1.27;;;;;;;;;;5096263;28;20440;-80
2024/04/03 08:41:28;;;;;;;2.55;1.35;;;;;;;;;;5096061;28;20378;-80
2024/04/03 08:43:54;;;;;;;2.08;1.35;;;;;;;;;;5096362;28;20859;-80
2024/04/03 08:46:20;;;;;;;3.17;1.30;;;;;;;;;;5096192;28;20787;-80
2024/04/03 08:48:47;;;;;;;2.80;1.48;;;;;;;;;;5094290;28;20412;-80
2024/04/03 08:51:14;;;;;;;2.80;1.70;;;;;;;;;;5096424;28;20370;-80
2024/04/03 08:53:42;;;;;;;1.63;1.30;;;;;;;;;;5096048;28;20388;-80
2024/04/03 08:56:08;;;;;;;2.58;1.30;;;;;;;;;;5096766;28;20377;-80
2024/04/03 08:58:35;;;;;;;2.70;1.48;;;;;;;;;;5097107;28;20392;-80
2024/04/03 09:01:02;;;;;;;1.98;1.55;;;;;;;;;;5096434;28;20382;-80
2024/04/03 09:03:28;;;;;;;3.08;1.70;;;;;;;;;;5096275;28;20370;-80
2024/04/03 09:05:54;;;;;;;2.00;1.35;;;;;;;;;;5095463;28;20401;-80
2024/04/03 09:08:20;;;;;;;2.42;1.40;;;;;;;;;;5096072;28;20764;-80
2024/04/03 09:10:57;;;;;;;1.73;1.20;;;;;;;;;;5094664;28;20377;-80
2024/04/03 09:13:23;;;;;;;1.30;0.90;;;;;;;;;;5095896;28;20369;-80
2024/04/03 09:15:52;;;;;;;2.05;1.25;;;;;;;;;;5096015;28;20865;-80
2024/04/03 09:18:19;;;;;;;1.10;0.90;;;;;;;;;;5095446;28;20441;-80
2024/04/03 09:20:50;;;;;;;1.80;1.40;;;;;;;;;;5095370;28;20840;-80
2024/04/03 09:23:16;;;;;;;1.90;1.10;;;;;;;;;;5095485;28;20385;-80
2024/04/03 09:25:42;;;;;;;3.28;1.35;;;;;;;;;;5095313;28;20429;-80
2024/04/03 09:28:09;;;;;;;2.20;0.98;;;;;;;;;;5095417;28;20382;-80
2024/04/03 09:30:41;;;;;;;1.67;0.93;;;;;;;;;;5095291;28;20386;-80
2024/04/03 09:33:07;;;;;;;1.58;1.00;;;;;;;;;;5095371;28;20413;-80
2024/04/03 09:35:34;;;;;;;1.92;0.85;;;;;;;;;;5095028;28;20732;-80
2024/04/03 09:38:00;;;;;;;1.70;0.85;;;;;;;;;;5095813;28;20867;-80
2024/04/03 09:40:30;;;;;;;1.15;0.85;;;;;;;;;;5095599;28;20385;-80
2024/04/03 09:43:06;;;;;;;2.45;1.08;;;;;;;;;;5095817;28;20370;-80
2024/04/03 09:45:32;;;;;;;1.73;1.00;;;;;;;;;;5095750;28;20898;-80
2024/04/03 09:48:02;;;;;;;1.20;0.90;;;;;;;;;;5095699;28;20370;-80
2024/04/03 09:50:41;;;;;;;2.08;1.05;;;;;;;;;;5094791;28;20371;-80
2024/04/03 09:53:09;;;;;;;3.17;1.00;;;;;;;;;;5094912;28;20377;-80
2024/04/03 09:55:36;;;;;;;1.55;0.95;;;;;;;;;;5095225;28;20883;-80
2024/04/03 09:58:02;;;;;;;1.83;1.10;;;;;;;;;;5094514;28;20409;-80
2024/04/03 10:00:29;;;;;;;1.20;0.90;;;;;;;;;;5094310;28;20374;-80
2024/04/03 10:02:55;;;;;;;1.10;0.80;;;;;;;;;;5094830;28;20416;-79
2024/04/03 10:05:22;;;;;;;1.42;0.90;;;;;;;;;;5094909;28;20404;-80
2024/04/03 10:08:01;;;;;;;1.67;0.90;;;;;;;;;;5094323;28;20859;-80
2024/04/03 10:10:28;;;;;;;1.23;0.80;;;;;;;;;;5094889;28;20370;-80
2024/04/03 10:12:57;;;;;;;1.95;0.90;;;;;;;;;;5095011;28;20829;-80
2024/04/03 10:15:23;;;;;;;1.40;0.77;;;;;;;;;;5095369;28;20389;-79
2024/04/03 10:17:49;;;;;;;1.40;1.00;;;;;;;;;;5094512;28;20386;-79
2024/04/03 10:20:29;;;;;;;0.60;0.60;;;;;;;;;;5095311;28;20431;-80
2024/04/03 10:22:55;;;;;;;1.40;0.55;;;;;;;;;;5094657;28;21126;-80
2024/04/03 10:25:21;;;;;;;1.60;0.70;;;;;;;;;;5094862;28;20410;-79
2024/04/03 10:27:47;;;;;;;0.85;0.50;;;;;;;;;;5094063;28;20382;-79
2024/04/03 10:30:18;;;;;;;1.30;0.90;;;;;;;;;;5095055;28;20728;-80
2024/04/03 10:32:45;;;;;;;1.52;0.90;;;;;;;;;;5094793;28;20398;-80
2024/04/03 10:35:11;;;;;;;1.35;0.70;;;;;;;;;;5095334;28;20378;-80
2024/04/03 10:37:37;;;;;;;1.38;0.88;;;;;;;;;;5094809;28;20523;-79
2024/04/03 10:40:03;;;;;;;0.70;0.70;;;;;;;;;;5095806;28;20378;-79
2024/04/03 10:42:30;;;;;;;0.90;0.60;;;;;;;;;;5095086;28;20374;-79
2024/04/03 10:44:56;;;;;;;1.40;0.90;;;;;;;;;;5095369;28;20428;-79
2024/04/03 10:47:22;;;;;;;0.88;0.80;;;;;;;;;;5095450;28;20374;-79
2024/04/03 10:49:48;;;;;;;1.17;1.00;;;;;;;;;;5094754;28;20469;-80
2024/04/03 10:52:16;;;;;;;1.92;1.02;;;;;;;;;;5095043;28;20414;-79
2024/04/03 10:54:42;;;;;;;1.50;0.80;;;;;;;;;;5076696;28;20385;-79
2024/04/03 10:57:08;;;;;;;2.40;0.87;;;;;;;;;;5094674;28;20434;-79
2024/04/03 10:59:34;;;;;;;2.60;1.40;;;;;;;;;;5094828;28;20851;-79
2024/04/03 11:02:00;;;;;;;1.33;1.02;;;;;;;;;;5095132;28;20874;-80
2024/04/03 11:04:27;;;;;;;1.33;0.95;;;;;;;;;;5096351;28;20386;-80
2024/04/03 11:06:53;;;;;;;2.17;0.90;;;;;;;;;;5095862;28;20871;-80
2024/04/03 11:09:19;;;;;;;1.60;0.90;;;;;;;;;;5095255;28;20374;-80
2024/04/03 11:11:52;;;;;;;2.20;1.00;;;;;;;;;;5095079;28;20424;-79
2024/04/03 11:14:24;;;;;;;1.10;0.70;;;;;;;;;;5094778;28;20838;-80
2024/04/03 11:16:51;;;;;;;2.60;0.90;;;;;;;;;;5094609;28;20420;-79
2024/04/03 11:19:17;;;;;;;1.02;0.70;;;;;;;;;;5095532;28;20381;-80
2024/04/03 11:21:43;;;;;;;2.83;1.17;;;;;;;;;;5095269;28;20382;-80
2024/04/03 11:24:09;;;;;;;2.75;1.40;;;;;;;;;;5094996;28;20386;-79
2024/04/03 11:26:35;;;;;;;1.73;0.90;;;;;;;;;;5095459;28;20435;-80
2024/04/03 11:29:21;;;;;;;2.17;0.80;;;;;;;;;;5095083;28;20426;-80
2024/04/03 11:31:47;;;;;;;0.68;0.68;;;;;;;;;;5095084;28;20477;-80
2024/04/03 11:34:13;;;;;;;1.48;0.80;;;;;;;;;;5096453;28;20494;-80
2024/04/03 11:36:39;;;;;;;1.13;0.75;;;;;;;;;;5098863;28;20461;-80
2024/04/03 11:39:05;;;;;;;1.95;0.93;;;;;;;;;;5099714;28;20374;-80
2024/04/03 11:41:31;;;;;;;1.73;0.80;;;;;;;;;;5099336;28;20411;-80
2024/04/03 11:43:57;;;;;;;2.60;1.00;;;;;;;;;;5098828;28;20382;-80
2024/04/03 11:46:23;;;;;;;1.33;0.80;;;;;;;;;;5098564;28;20484;-80
2024/04/03 11:48:54;;;;;;;2.40;0.90;;;;;;;;;;5098616;28;20412;-80
2024/04/03 11:51:20;;;;;;;1.00;0.90;;;;;;;;;;5098731;28;20435;-80
2024/04/03 11:53:46;;;;;;;1.40;0.90;;;;;;;;;;5097864;28;20378;-80
2024/04/03 11:56:12;;;;;;;0.80;0.60;;;;;;;;;;5098515;28;20378;-80
2024/04/03 11:58:38;;;;;;;1.20;0.90;;;;;;;;;;5099202;28;20386;-80
2024/04/03 12:01:04;;;;;;;1.02;0.80;;;;;;;;;;5098966;28;20409;-80
2024/04/03 12:03:30;;;;;;;1.08;0.80;;;;;;;;;;5098946;28;20389;-80
2024/04/03 12:05:56;;;;;;;0.65;0.63;;;;;;;;;;5098494;28;20555;-80
2024/04/03 12:08:22;;;;;;;2.88;0.90;;;;;;;;;;5099005;28;20374;-80
2024/04/03 12:10:49;;;;;;;2.13;1.33;;;;;;;;;;5098181;28;20383;-79
2024/04/03 12:13:15;;;;;;;2.30;1.50;;;;;;;;;;5097556;28;20382;-80
2024/04/03 12:15:43;;;;;;;1.92;1.30;;;;;;;;;;5097944;28;20400;-80
2024/04/03 12:18:12;;;;;;;2.10;1.48;;;;;;;;;;5097335;28;20382;-80
2024/04/03 12:20:40;;;;;;;2.28;1.30;;;;;;;;;;5097743;28;20374;-80
2024/04/03 12:23:06;;;;;;;1.58;1.15;;;;;;;;;;5097204;28;20408;-80
2024/04/03 12:25:32;;;;;;;2.00;1.10;;;;;;;;;;5097832;28;20406;-80
2024/04/03 12:27:58;;;;;;;1.70;1.23;;;;;;;;;;5097871;28;20424;-80
2024/04/03 12:30:24;;;;;;;1.27;1.00;;;;;;;;;;5096866;28;20366;-80
2024/04/03 12:32:50;;;;;;;2.20;1.10;;;;;;;;;;5096864;28;20963;-80
2024/04/03 12:35:16;;;;;;;1.83;1.10;;;;;;;;;;5098000;28;20370;-80
2024/04/03 12:37:43;;;;;;;1.30;1.10;;;;;;;;;;5097832;28;20459;-80
2024/04/03 12:40:11;;;;;;;2.13;1.33;;;;;;;;;;5097771;28;20760;-80
2024/04/03 12:42:37;;;;;;;1.85;1.40;;;;;;;;;;5097281;28;20461;-80
2024/04/03 12:45:03;;;;;;;1.87;1.40;;;;;;;;;;5096459;28;20476;-80
2024/04/03 12:47:29;;;;;;;2.15;1.17;;;;;;;;;;5096731;28;20451;-80
2024/04/03 12:49:55;;;;;;;2.00;1.20;;;;;;;;;;5097151;28;20385;-80
2024/04/03 12:52:21;;;;;;;1.37;1.03;;;;;;;;;;5097614;28;20380;-80
2024/04/03 12:54:47;;;;;;;1.40;1.00;;;;;;;;;;5096757;28;20389;-80
2024/04/03 12:57:13;;;;;;;1.65;1.20;;;;;;;;;;5097572;28;20468;-80
2024/04/03 12:59:41;;;;;;;2.03;1.02;;;;;;;;;;5097516;28;20387;-80
2024/04/03 13:02:08;;;;;;;1.98;1.13;;;;;;;;;;5097368;28;20793;-80
2024/04/03 13:04:34;;;;;;;1.20;1.00;;;;;;;;;;5096454;28;20385;-80
2024/04/03 13:07:00;;;;;;;2.30;1.00;;;;;;;;;;5096541;28;20413;-80
2024/04/03 13:09:26;;;;;;;0.90;0.80;;;;;;;;;;5096177;28;20410;-80
2024/04/03 13:11:52;;;;;;;1.45;1.02;;;;;;;;;;5096795;28;20366;-80
2024/04/03 13:14:18;;;;;;;1.80;0.90;;;;;;;;;;5096434;28;20378;-80
2024/04/03 13:16:44;;;;;;;1.70;0.90;;;;;;;;;;5097180;28;20382;-80
2024/04/03 13:19:10;;;;;;;1.77;1.00;;;;;;;;;;5096621;28;20378;-80
2024/04/03 13:21:36;;;;;;;1.40;1.20;;;;;;;;;;5096908;28;20393;-80
2024/04/03 13:24:02;;;;;;;2.40;1.10;;;;;;;;;;5097181;28;20406;-80
2024/04/03 13:26:28;;;;;;;2.08;1.05;;;;;;;;;;5097031;28;20417;-80
2024/04/03 13:28:55;;;;;;;1.10;1.00;;;;;;;;;;5096539;28;20440;-80
2024/04/03 13:31:21;;;;;;;1.10;1.00;;;;;;;;;;5096795;28;20374;-80
2024/04/03 13:33:47;;;;;;;1.40;0.80;;;;;;;;;;5097121;28;20405;-79
2024/04/03 13:36:13;;;;;;;3.05;1.10;;;;;;;;;;5097419;28;20374;-80
2024/04/03 13:38:39;;;;;;;1.30;1.00;;;;;;;;;;5096398;28;20862;-80
2024/04/03 13:41:05;;;;;;;1.70;0.98;;;;;;;;;;5096309;28;20386;-80
2024/04/03 13:43:31;;;;;;;1.07;0.90;;;;;;;;;;5095237;28;20438;-80
2024/04/03 13:45:57;;;;;;;1.45;1.00;;;;;;;;;;5094736;28;20929;-80
2024/04/03 13:48:23;;;;;;;1.67;1.00;;;;;;;;;;5095163;28;20432;-80
2024/04/03 13:50:50;;;;;;;2.15;0.98;;;;;;;;;;5095007;28;20378;-80
2024/04/03 13:53:16;;;;;;;1.35;0.80;;;;;;;;;;5095033;28;20372;-80
2024/04/03 13:55:43;;;;;;;2.05;1.00;;;;;;;;;;5095217;28;20406;-80
2024/04/03 13:58:09;;;;;;;1.53;0.90;;;;;;;;;;5094096;28;20464;-80
2024/04/03 14:00:35;;;;;;;2.03;0.88;;;;;;;;;;5094251;28;20386;-80
2024/04/03 14:03:01;;;;;;;2.30;0.88;;;;;;;;;;5094160;28;20846;-80
2024/04/03 14:05:27;;;;;;;1.35;0.93;;;;;;;;;;5095255;28;20760;-80
2024/04/03 14:07:53;;;;;;;0.77;0.77;;;;;;;;;;5093834;28;20369;-80
2024/04/03 14:10:19;;;;;;;0.90;0.63;;;;;;;;;;5094610;28;20465;-80
2024/04/03 14:12:49;;;;;;;1.50;1.13;;;;;;;;;;5094154;28;20507;-80
2024/04/03 14:15:15;;;;;;;1.20;1.00;;;;;;;;;;5094809;28;20430;-80
2024/04/03 14:17:41;;;;;;;1.10;0.88;;;;;;;;;;5094247;28;20385;-80
2024/04/03 14:20:08;;;;;;;1.10;0.70;;;;;;;;;;5094292;28;20374;-80
2024/04/03 14:22:35;;;;;;;0.88;0.70;;;;;;;;;;5094217;28;20377;-80
2024/04/03 14:25:01;;;;;;;0.88;0.70;;;;;;;;;;5094261;28;20863;-80
2024/04/03 14:27:27;;;;;;;0.90;0.60;;;;;;;;;;5094344;28;20399;-81
2024/04/03 14:29:54;;;;;;;0.40;0.30;;;;;;;;;;5076103;28;20382;-80
2024/04/03 14:32:20;;;;;;;1.20;0.60;;;;;;;;;;5094282;28;20503;-81
2024/04/03 14:34:46;;;;;;;0.60;0.60;;;;;;;;;;5093530;28;20381;-81
2024/04/03 14:37:12;;;;;;;0.50;0.40;;;;;;;;;;5094144;28;20378;-80
2024/04/03 14:39:38;;;;;;;0.57;0.40;;;;;;;;;;5094511;28;20370;-80
2024/04/03 14:42:04;;;;;;;0.65;0.30;;;;;;;;;;5094333;28;20720;-80